Time;durP1;ratioP1;P1;durP2;ratioP2;P2;SDS_P1;SDS_P2;PMS_P1;PMS_P2;Temp;Humidity;BMP_temperature;BMP_pressure;BME280_temperature;BME280_humidity;BME280_pressure;Samples;Min_cycle;Max_cycle;Signal;HPM_P1;HPM_P2
2022/09/21 00:01:27;;;;;;;9.20;2.67;;;;;;;;;;5070621;28;20119;-62
2022/09/21 00:03:55;;;;;;;5.80;2.55;;;;;;;;;;5071823;28;20492;-62
2022/09/21 00:06:21;;;;;;;6.63;3.35;;;;;;;;;;5071443;28;20479;-62
2022/09/21 00:08:47;;;;;;;5.35;2.90;;;;;;;;;;5071518;28;20424;-62
2022/09/21 00:11:15;;;;;;;4.95;3.30;;;;;;;;;;5071755;28;20055;-62
2022/09/21 00:13:45;;;;;;;5.25;2.60;;;;;;;;;;5071356;28;20497;-61
2022/09/21 00:16:12;;;;;;;4.70;2.67;;;;;;;;;;5071338;28;20101;-62
2022/09/21 00:18:38;;;;;;;5.65;2.88;;;;;;;;;;5070447;28;20040;-62
2022/09/21 00:21:08;;;;;;;5.50;3.10;;;;;;;;;;5071326;28;20492;-62
2022/09/21 00:23:37;;;;;;;7.93;3.00;;;;;;;;;;5071629;28;20039;-62
2022/09/21 00:26:06;;;;;;;4.68;2.83;;;;;;;;;;5071297;28;20541;-62
2022/09/21 00:28:32;;;;;;;6.90;3.05;;;;;;;;;;5070973;28;20119;-62
2022/09/21 00:31:05;;;;;;;3.00;2.45;;;;;;;;;;5071119;28;20048;-62
2022/09/21 00:33:32;;;;;;;6.63;2.78;;;;;;;;;;5071457;28;20510;-62
2022/09/21 00:36:05;;;;;;;5.47;2.95;;;;;;;;;;5070687;28;20109;-62
2022/09/21 00:38:31;;;;;;;6.65;2.80;;;;;;;;;;5071205;28;20072;-62
2022/09/21 00:40:58;;;;;;;6.70;2.83;;;;;;;;;;5069652;28;20498;-62
2022/09/21 00:43:24;;;;;;;4.57;2.80;;;;;;;;;;5070863;28;20158;-62
2022/09/21 00:45:50;;;;;;;5.97;3.05;;;;;;;;;;5071058;28;20040;-62
2022/09/21 00:48:16;;;;;;;13.77;3.00;;;;;;;;;;5071041;28;20044;-62
2022/09/21 00:50:46;;;;;;;8.23;3.38;;;;;;;;;;5070762;28;20101;-62
2022/09/21 00:53:14;;;;;;;4.30;3.00;;;;;;;;;;5071183;28;20121;-62
2022/09/21 00:55:43;;;;;;;6.32;3.08;;;;;;;;;;5071014;28;20048;-62
2022/09/21 00:58:11;;;;;;;8.10;2.90;;;;;;;;;;5070577;28;20044;-62
2022/09/21 01:00:39;;;;;;;6.47;3.08;;;;;;;;;;5071010;28;20599;-62
2022/09/21 01:03:05;;;;;;;4.68;2.72;;;;;;;;;;5069689;28;20044;-62
2022/09/21 01:05:31;;;;;;;4.75;3.08;;;;;;;;;;5070419;28;20040;-62
2022/09/21 01:07:59;;;;;;;4.53;2.80;;;;;;;;;;5070883;28;20482;-62
2022/09/21 01:10:26;;;;;;;8.63;3.20;;;;;;;;;;5070492;28;20406;-62
2022/09/21 01:13:04;;;;;;;3.95;2.80;;;;;;;;;;5070300;28;20083;-62
2022/09/21 01:15:37;;;;;;;3.53;2.30;;;;;;;;;;5070904;28;20098;-62
2022/09/21 01:18:27;;;;;;;5.38;2.60;;;;;;;;;;5070403;28;20047;-62
2022/09/21 01:20:53;;;;;;;4.10;2.83;;;;;;;;;;5070833;28;20036;-62
2022/09/21 01:23:22;;;;;;;5.13;2.75;;;;;;;;;;5071032;28;20037;-62
2022/09/21 01:25:56;;;;;;;6.00;2.50;;;;;;;;;;5070143;28;20067;-62
2022/09/21 01:28:35;;;;;;;6.55;2.88;;;;;;;;;;5070557;28;20105;-62
2022/09/21 01:31:04;;;;;;;3.00;2.15;;;;;;;;;;5069037;28;20041;-62
2022/09/21 01:33:35;;;;;;;5.85;2.42;;;;;;;;;;5070186;28;20047;-62
2022/09/21 01:36:02;;;;;;;6.65;2.42;;;;;;;;;;5070701;28;20470;-62
2022/09/21 01:38:31;;;;;;;4.47;2.85;;;;;;;;;;5070676;28;20036;-62
2022/09/21 01:40:59;;;;;;;4.85;2.72;;;;;;;;;;5070305;28;20037;-62
2022/09/21 01:43:31;;;;;;;3.30;2.67;;;;;;;;;;5070599;28;20033;-62
2022/09/21 01:46:00;;;;;;;3.97;2.30;;;;;;;;;;5070268;28;20052;-62
2022/09/21 01:48:27;;;;;;;7.15;3.10;;;;;;;;;;5070049;28;20044;-62
2022/09/21 01:50:54;;;;;;;5.18;2.78;;;;;;;;;;5070231;28;20407;-62
2022/09/21 01:53:20;;;;;;;6.38;2.65;;;;;;;;;;5070413;28;20051;-62
2022/09/21 01:55:50;;;;;;;5.47;2.90;;;;;;;;;;5069927;28;20084;-62
2022/09/21 01:58:19;;;;;;;4.65;2.67;;;;;;;;;;5070077;28;20037;-62
2022/09/21 02:00:47;;;;;;;6.25;2.60;;;;;;;;;;5070111;28;20028;-62
2022/09/21 02:03:21;;;;;;;5.32;2.75;;;;;;;;;;5069939;28;20462;-62
2022/09/21 02:05:47;;;;;;;3.30;2.67;;;;;;;;;;5068822;28;20048;-62
2022/09/21 02:08:14;;;;;;;7.30;2.72;;;;;;;;;;5070304;28;20427;-62
2022/09/21 02:10:44;;;;;;;6.00;2.65;;;;;;;;;;5069484;28;20673;-62
2022/09/21 02:13:10;;;;;;;4.93;2.85;;;;;;;;;;5070048;28;20044;-62
2022/09/21 02:15:43;;;;;;;4.88;3.22;;;;;;;;;;5069847;28;20043;-62
2022/09/21 02:18:30;;;;;;;7.18;2.60;;;;;;;;;;5069715;28;20527;-62
2022/09/21 02:20:57;;;;;;;4.68;2.65;;;;;;;;;;5068361;28;20123;-62
2022/09/21 02:23:27;;;;;;;6.05;2.47;;;;;;;;;;5070156;28;20037;-62
2022/09/21 02:25:53;;;;;;;3.55;2.40;;;;;;;;;;5069567;28;20613;-62
2022/09/21 02:28:19;;;;;;;3.70;2.08;;;;;;;;;;5070023;28;20041;-62
2022/09/21 02:30:51;;;;;;;3.17;2.13;;;;;;;;;;5069957;28;20552;-62
2022/09/21 02:33:31;;;;;;;4.05;2.42;;;;;;;;;;5069655;28;20044;-62
2022/09/21 02:36:09;;;;;;;3.45;2.28;;;;;;;;;;5068476;28;20040;-62
2022/09/21 02:38:45;;;;;;;3.47;1.75;;;;;;;;;;5070036;28;20131;-62
2022/09/21 02:41:15;;;;;;;2.47;1.80;;;;;;;;;;5070314;28;20049;-62
2022/09/21 02:43:45;;;;;;;3.08;2.35;;;;;;;;;;5073456;28;20037;-62
2022/09/21 02:46:16;;;;;;;2.50;2.00;;;;;;;;;;5073649;28;20120;-62
2022/09/21 02:48:48;;;;;;;4.28;2.35;;;;;;;;;;5073119;28;20055;-62
2022/09/21 02:51:18;;;;;;;6.72;2.50;;;;;;;;;;5073268;28;20048;-62
2022/09/21 02:53:44;;;;;;;3.60;2.17;;;;;;;;;;5073403;28;20127;-62
2022/09/21 02:56:11;;;;;;;4.53;2.40;;;;;;;;;;5072885;28;20226;-62
2022/09/21 02:58:39;;;;;;;3.80;2.45;;;;;;;;;;5071774;28;20051;-62
2022/09/21 03:01:06;;;;;;;3.53;2.53;;;;;;;;;;5073321;28;20036;-62
2022/09/21 03:03:32;;;;;;;4.05;2.53;;;;;;;;;;5072823;28;20390;-62
2022/09/21 03:05:59;;;;;;;4.75;2.33;;;;;;;;;;5071737;28;20483;-62
2022/09/21 03:08:25;;;;;;;3.25;2.08;;;;;;;;;;5072852;28;20086;-62
2022/09/21 03:10:51;;;;;;;3.85;2.22;;;;;;;;;;5072739;28;20473;-62
2022/09/21 03:13:17;;;;;;;4.07;2.25;;;;;;;;;;5073216;28;20710;-62
2022/09/21 03:15:44;;;;;;;3.78;2.42;;;;;;;;;;5073092;28;20044;-62
2022/09/21 03:18:10;;;;;;;2.10;1.90;;;;;;;;;;5071109;28;20094;-62
2022/09/21 03:20:37;;;;;;;3.47;2.35;;;;;;;;;;5072960;28;20059;-62
2022/09/21 03:23:03;;;;;;;5.05;2.30;;;;;;;;;;5072866;28;20093;-62
2022/09/21 03:25:29;;;;;;;6.03;2.40;;;;;;;;;;5072322;28;20047;-62
2022/09/21 03:27:56;;;;;;;4.18;2.10;;;;;;;;;;5072678;28;20060;-61
2022/09/21 03:30:23;;;;;;;3.38;2.20;;;;;;;;;;5072464;28;20083;-62
2022/09/21 03:32:50;;;;;;;3.70;1.92;;;;;;;;;;5071989;28;20049;-62
2022/09/21 03:35:16;;;;;;;2.92;1.92;;;;;;;;;;5072660;28;20406;-62
2022/09/21 03:37:42;;;;;;;3.35;2.10;;;;;;;;;;5072515;28;20115;-62
2022/09/21 03:40:10;;;;;;;3.40;1.85;;;;;;;;;;5072187;28;20033;-62
2022/09/21 03:42:36;;;;;;;2.30;1.90;;;;;;;;;;5072205;28;20040;-62
2022/09/21 03:45:02;;;;;;;3.13;1.80;;;;;;;;;;5072350;28;20483;-62
2022/09/21 03:47:28;;;;;;;3.65;1.70;;;;;;;;;;5071911;28;20083;-62
2022/09/21 03:49:54;;;;;;;4.82;1.75;;;;;;;;;;5072330;28;20044;-62
2022/09/21 03:52:20;;;;;;;1.98;1.40;;;;;;;;;;5072112;28;20387;-62
2022/09/21 03:54:46;;;;;;;4.88;1.42;;;;;;;;;;5072049;28;20044;-61
2022/09/21 03:57:12;;;;;;;1.67;1.38;;;;;;;;;;5070510;28;20040;-61
2022/09/21 03:59:38;;;;;;;2.60;1.60;;;;;;;;;;5072199;28;20036;-62
2022/09/21 04:02:04;;;;;;;1.63;1.52;;;;;;;;;;5071895;28;20040;-62
2022/09/21 04:04:30;;;;;;;1.65;1.45;;;;;;;;;;5071879;28;20058;-62
2022/09/21 04:06:58;;;;;;;2.00;1.60;;;;;;;;;;5071560;28;20033;-62
2022/09/21 04:09:24;;;;;;;5.85;1.58;;;;;;;;;;5071113;28;20079;-62
2022/09/21 04:11:51;;;;;;;7.40;2.40;;;;;;;;;;5071901;28;20617;-61
2022/09/21 04:14:17;;;;;;;3.10;2.08;;;;;;;;;;5072009;28;20044;-61
2022/09/21 04:16:43;;;;;;;2.55;1.90;;;;;;;;;;5071106;28;20503;-61
2022/09/21 04:19:09;;;;;;;2.60;1.60;;;;;;;;;;5071680;28;20124;-61
2022/09/21 04:21:35;;;;;;;3.13;1.45;;;;;;;;;;5071425;28;20036;-61
2022/09/21 04:24:03;;;;;;;2.80;1.70;;;;;;;;;;5071247;28;20033;-61
2022/09/21 04:26:30;;;;;;;2.75;1.40;;;;;;;;;;5071360;28;20040;-61
2022/09/21 04:28:57;;;;;;;4.40;1.50;;;;;;;;;;5071287;28;20047;-61
2022/09/21 04:31:23;;;;;;;3.65;1.88;;;;;;;;;;5071109;28;20109;-61
2022/09/21 04:33:50;;;;;;;2.72;1.73;;;;;;;;;;5071546;28;20054;-61
2022/09/21 04:36:20;;;;;;;2.80;1.77;;;;;;;;;;5071127;28;20040;-61
2022/09/21 04:38:46;;;;;;;3.72;1.75;;;;;;;;;;5070695;28;20095;-61
2022/09/21 04:41:12;;;;;;;2.67;1.75;;;;;;;;;;5071351;28;20089;-62
2022/09/21 04:43:41;;;;;;;4.07;1.73;;;;;;;;;;5071079;28;20697;-62
2022/09/21 04:46:08;;;;;;;6.05;2.53;;;;;;;;;;5070716;28;20044;-62
2022/09/21 04:48:35;;;;;;;5.28;2.40;;;;;;;;;;5071135;28;20378;-62
2022/09/21 04:51:01;;;;;;;5.40;3.20;;;;;;;;;;5071244;28;20328;-62
2022/09/21 04:53:29;;;;;;;3.85;2.10;;;;;;;;;;5069487;28;20093;-62
2022/09/21 04:55:55;;;;;;;2.38;2.00;;;;;;;;;;5070871;28;20044;-62
2022/09/21 04:58:22;;;;;;;3.13;2.17;;;;;;;;;;5070559;28;20043;-62
2022/09/21 05:00:50;;;;;;;5.22;2.58;;;;;;;;;;5070687;28;20052;-61
2022/09/21 05:03:16;;;;;;;6.88;3.60;;;;;;;;;;5067763;28;20036;-61
2022/09/21 05:05:49;;;;;;;6.25;3.30;;;;;;;;;;5068648;28;20386;-60
2022/09/21 05:08:15;;;;;;;3.42;2.78;;;;;;;;;;5069747;28;20335;-61
2022/09/21 05:10:42;;;;;;;4.20;2.55;;;;;;;;;;5068673;28;20504;-61
2022/09/21 05:13:08;;;;;;;6.93;2.63;;;;;;;;;;5070310;28;20044;-61
2022/09/21 05:15:36;;;;;;;5.60;2.45;;;;;;;;;;5069513;28;20043;-61
2022/09/21 05:18:02;;;;;;;6.00;2.22;;;;;;;;;;5069857;28;20044;-61
2022/09/21 05:20:28;;;;;;;3.25;2.15;;;;;;;;;;5070396;28;20062;-61
2022/09/21 05:22:54;;;;;;;3.60;2.33;;;;;;;;;;5069803;28;20071;-61
2022/09/21 05:25:20;;;;;;;4.00;2.40;;;;;;;;;;5070568;28;20068;-61
2022/09/21 05:27:46;;;;;;;3.60;1.90;;;;;;;;;;5068633;28;20040;-62
2022/09/21 05:30:12;;;;;;;5.07;2.00;;;;;;;;;;5069843;28;20052;-62
2022/09/21 05:32:52;;;;;;;3.92;2.05;;;;;;;;;;5070254;28;20047;-62
2022/09/21 05:35:39;;;;;;;3.25;2.30;;;;;;;;;;5069970;28;20527;-62
2022/09/21 05:38:13;;;;;;;3.85;2.08;;;;;;;;;;5069578;28;20055;-62
2022/09/21 05:40:39;;;;;;;4.50;1.95;;;;;;;;;;5069928;28;20045;-62
2022/09/21 05:43:05;;;;;;;3.03;1.90;;;;;;;;;;5070416;28;20032;-62
2022/09/21 05:45:31;;;;;;;3.63;1.90;;;;;;;;;;5069078;28;20072;-61
2022/09/21 05:48:07;;;;;;;5.43;1.90;;;;;;;;;;5069919;28;20115;-62
2022/09/21 05:50:39;;;;;;;4.70;1.98;;;;;;;;;;5070311;28;20506;-62
2022/09/21 05:53:17;;;;;;;2.60;1.85;;;;;;;;;;5069102;28;20035;-62
2022/09/21 05:55:43;;;;;;;2.63;1.77;;;;;;;;;;5069937;28;20052;-63
2022/09/21 05:58:36;;;;;;;2.22;1.83;;;;;;;;;;5069660;28;20367;-61
2022/09/21 06:01:08;;;;;;;3.38;1.48;;;;;;;;;;5069146;28;20045;-61
2022/09/21 06:03:35;;;;;;;3.40;1.95;;;;;;;;;;5069958;28;20052;-61
2022/09/21 06:06:01;;;;;;;2.70;1.95;;;;;;;;;;5069207;28;20079;-61
2022/09/21 06:08:27;;;;;;;4.38;1.90;;;;;;;;;;5069021;28;20037;-61
2022/09/21 06:10:54;;;;;;;2.85;2.00;;;;;;;;;;5069512;28;20324;-61
2022/09/21 06:13:20;;;;;;;3.05;1.60;;;;;;;;;;5070369;28;20117;-61
2022/09/21 06:15:46;;;;;;;6.15;1.80;;;;;;;;;;5070808;28;20040;-61
2022/09/21 06:18:12;;;;;;;2.85;1.60;;;;;;;;;;5073875;28;20388;-62
2022/09/21 06:20:38;;;;;;;4.43;2.00;;;;;;;;;;5073069;28;20147;-61
2022/09/21 06:23:06;;;;;;;2.15;1.73;;;;;;;;;;5073104;28;20075;-61
2022/09/21 06:25:32;;;;;;;2.50;1.58;;;;;;;;;;5073024;28;20490;-61
2022/09/21 06:28:11;;;;;;;5.70;2.00;;;;;;;;;;5073507;28;20036;-61
2022/09/21 06:30:38;;;;;;;1.88;1.70;;;;;;;;;;5073323;28;20123;-62
2022/09/21 06:33:05;;;;;;;2.17;1.60;;;;;;;;;;5073006;28;20054;-61
2022/09/21 06:35:32;;;;;;;5.88;1.70;;;;;;;;;;5073280;28;20055;-61
2022/09/21 06:37:58;;;;;;;2.53;1.50;;;;;;;;;;5072210;28;20067;-61
2022/09/21 06:40:25;;;;;;;2.20;1.70;;;;;;;;;;5073380;28;20043;-61
2022/09/21 06:42:54;;;;;;;2.53;1.85;;;;;;;;;;5073112;28;20086;-61
2022/09/21 06:45:20;;;;;;;4.03;1.40;;;;;;;;;;5072909;28;20032;-62
2022/09/21 06:47:47;;;;;;;3.88;1.48;;;;;;;;;;5072899;28;20540;-62
2022/09/21 06:50:13;;;;;;;1.50;1.40;;;;;;;;;;5072818;28;20051;-62
2022/09/21 06:52:40;;;;;;;2.50;1.23;;;;;;;;;;5073180;28;20391;-62
2022/09/21 06:55:07;;;;;;;4.70;1.52;;;;;;;;;;5071306;28;20076;-62
2022/09/21 06:57:33;;;;;;;3.00;1.60;;;;;;;;;;5072868;28;20106;-63
2022/09/21 06:59:59;;;;;;;2.03;1.63;;;;;;;;;;5072439;28;20044;-62
2022/09/21 07:02:25;;;;;;;4.43;1.80;;;;;;;;;;5073212;28;20036;-62
2022/09/21 07:04:51;;;;;;;2.40;1.70;;;;;;;;;;5072675;28;20421;-62
2022/09/21 07:07:18;;;;;;;1.90;1.70;;;;;;;;;;5072176;28;20040;-62
2022/09/21 07:09:44;;;;;;;2.53;2.10;;;;;;;;;;5072163;28;20152;-62
2022/09/21 07:12:10;;;;;;;3.45;1.55;;;;;;;;;;5072972;28;20463;-62
2022/09/21 07:14:36;;;;;;;3.58;1.80;;;;;;;;;;5071988;28;20055;-62
2022/09/21 07:17:02;;;;;;;4.15;2.08;;;;;;;;;;5072477;28;20066;-62
2022/09/21 07:19:28;;;;;;;3.03;2.20;;;;;;;;;;5072645;28;20083;-62
2022/09/21 07:21:54;;;;;;;3.60;2.28;;;;;;;;;;5071681;28;20052;-61
2022/09/21 07:24:20;;;;;;;3.17;2.22;;;;;;;;;;5072395;28;20090;-62
2022/09/21 07:26:48;;;;;;;4.28;2.53;;;;;;;;;;5071177;28;20040;-62
2022/09/21 07:29:14;;;;;;;4.97;2.47;;;;;;;;;;5070046;28;20037;-62
2022/09/21 07:31:43;;;;;;;5.63;2.70;;;;;;;;;;5071986;28;20463;-62
2022/09/21 07:34:10;;;;;;;6.25;2.90;;;;;;;;;;5072532;28;20059;-62
2022/09/21 07:36:36;;;;;;;7.60;2.97;;;;;;;;;;5069860;28;20044;-62
2022/09/21 07:39:02;;;;;;;8.15;3.30;;;;;;;;;;5071871;28;20080;-62
2022/09/21 07:41:28;;;;;;;7.00;3.20;;;;;;;;;;5071228;28;20515;-62
2022/09/21 07:43:54;;;;;;;10.50;3.15;;;;;;;;;;5071207;28;20040;-62
2022/09/21 07:46:20;;;;;;;5.90;3.00;;;;;;;;;;5072044;28;20045;-62
2022/09/21 07:48:46;;;;;;;9.38;3.75;;;;;;;;;;5071671;28;20172;-63
2022/09/21 07:51:13;;;;;;;8.32;3.00;;;;;;;;;;5071791;28;20418;-63
2022/09/21 07:53:41;;;;;;;11.70;3.35;;;;;;;;;;5071064;28;20064;-63
2022/09/21 07:56:08;;;;;;;7.28;3.60;;;;;;;;;;5072174;28;20051;-63
2022/09/21 08:01:20;;;;;;;8.77;3.50;;;;;;;;;;5071239;28;20452;-63
2022/09/21 08:03:50;;;;;;;9.02;3.45;;;;;;;;;;5071581;28;20036;-63
2022/09/21 08:06:16;;;;;;;9.70;4.10;;;;;;;;;;5070951;28;20091;-63
2022/09/21 08:08:43;;;;;;;10.18;4.68;;;;;;;;;;5071439;28;20060;-63
2022/09/21 08:11:10;;;;;;;12.38;3.92;;;;;;;;;;5071298;28;20056;-63
2022/09/21 08:13:36;;;;;;;13.32;3.65;;;;;;;;;;5071319;28;20041;-63
2022/09/21 08:16:03;;;;;;;11.23;3.42;;;;;;;;;;5071148;28;20040;-63
2022/09/21 08:18:29;;;;;;;10.48;3.38;;;;;;;;;;5071688;28;20048;-63
2022/09/21 08:20:56;;;;;;;9.18;3.70;;;;;;;;;;5070811;28;20510;-63
2022/09/21 08:23:23;;;;;;;6.30;3.40;;;;;;;;;;5071263;28;20120;-60
2022/09/21 08:25:49;;;;;;;9.35;3.13;;;;;;;;;;5070973;28;20040;-61
2022/09/21 08:28:15;;;;;;;9.20;2.83;;;;;;;;;;5070624;28;20033;-61
2022/09/21 08:30:41;;;;;;;10.90;3.00;;;;;;;;;;5071456;28;20051;-61
2022/09/21 08:33:07;;;;;;;8.73;2.78;;;;;;;;;;5070669;28;20576;-61
2022/09/21 08:35:35;;;;;;;11.85;3.10;;;;;;;;;;5069320;28;20135;-61
2022/09/21 08:38:01;;;;;;;11.50;2.30;;;;;;;;;;5070429;28;20032;-61
2022/09/21 08:40:28;;;;;;;10.90;2.25;;;;;;;;;;5080248;28;20036;-59
2022/09/21 08:43:00;;;;;;;8.70;2.03;;;;;;;;;;5067845;28;20052;-61
2022/09/21 08:45:30;;;;;;;8.95;1.90;;;;;;;;;;5073504;28;20434;-61
2022/09/21 08:47:58;;;;;;;10.80;2.28;;;;;;;;;;5068607;28;20047;-60
2022/09/21 08:50:27;;;;;;;9.60;1.77;;;;;;;;;;5067780;28;20128;-62
2022/09/21 08:52:56;;;;;;;5.32;3.03;;;;;;;;;;5067066;28;20044;-61
2022/09/21 08:55:23;;;;;;;10.88;2.05;;;;;;;;;;5067649;28;20033;-61
2022/09/21 08:57:49;;;;;;;7.30;1.58;;;;;;;;;;5069186;28;20440;-62
2022/09/21 09:00:17;;;;;;;11.32;1.70;;;;;;;;;;5069168;28;20092;-61
2022/09/21 09:03:22;;;;;;;10.00;1.75;;;;;;;;;;5069445;28;20123;-61
2022/09/21 09:06:00;;;;;;;8.45;1.63;;;;;;;;;;5064752;28;20115;-60
2022/09/21 09:08:44;;;;;;;6.00;1.48;;;;;;;;;;5050124;28;20029;-62
2022/09/21 09:11:28;;;;;;;8.77;1.50;;;;;;;;;;5071076;28;20413;-64
2022/09/21 09:13:57;;;;;;;7.38;1.60;;;;;;;;;;5066419;28;20501;-64
2022/09/21 09:16:23;;;;;;;7.68;1.67;;;;;;;;;;5068965;28;20069;-64
2022/09/21 09:18:52;;;;;;;10.65;1.65;;;;;;;;;;5066328;28;20470;-63
2022/09/21 09:21:37;;;;;;;4.63;0.90;;;;;;;;;;5062327;28;20036;-63
2022/09/21 09:24:03;;;;;;;8.18;1.20;;;;;;;;;;5065251;28;20200;-63
2022/09/21 09:26:48;;;;;;;6.13;1.00;;;;;;;;;;5068848;28;20048;-64
2022/09/21 09:29:18;;;;;;;10.60;1.23;;;;;;;;;;5068619;28;20040;-62
2022/09/21 09:31:44;;;;;;;9.48;1.27;;;;;;;;;;5068893;28;20528;-60
2022/09/21 09:34:30;;;;;;;4.25;0.73;;;;;;;;;;5069048;28;20101;-61
2022/09/21 09:37:16;;;;;;;4.57;0.93;;;;;;;;;;5068104;28;20096;-61
2022/09/21 09:39:44;;;;;;;5.97;1.00;;;;;;;;;;5068613;28;20032;-62
2022/09/21 09:42:27;;;;;;;2.80;0.60;;;;;;;;;;5084206;28;20479;-62
2022/09/21 09:45:02;;;;;;;8.05;1.10;;;;;;;;;;5060665;28;20067;-62
2022/09/21 09:47:35;;;;;;;3.47;0.75;;;;;;;;;;5069147;28;20682;-61
2022/09/21 09:50:20;;;;;;;4.65;0.98;;;;;;;;;;5068933;28;20124;-62
2022/09/21 09:52:47;;;;;;;5.30;0.50;;;;;;;;;;5073283;28;20526;-62
2022/09/21 09:55:24;;;;;;;4.80;0.95;;;;;;;;;;5082233;28;20108;-63
2022/09/21 09:57:51;;;;;;;5.72;0.95;;;;;;;;;;5084455;28;20036;-61
2022/09/21 10:00:19;;;;;;;6.40;1.20;;;;;;;;;;5073619;28;20036;-63
2022/09/21 10:02:48;;;;;;;5.05;0.85;;;;;;;;;;5076380;28;20115;-62
2022/09/21 10:05:20;;;;;;;6.35;0.90;;;;;;;;;;5073506;28;20072;-61
2022/09/21 10:07:46;;;;;;;6.13;0.90;;;;;;;;;;5072968;28;20106;-63
2022/09/21 10:10:31;;;;;;;5.03;1.30;;;;;;;;;;5073098;28;20519;-63
2022/09/21 10:13:26;;;;;;;6.95;1.00;;;;;;;;;;5071307;28;20036;-62
2022/09/21 10:15:54;;;;;;;5.75;1.10;;;;;;;;;;5080185;28;20048;-63
2022/09/21 10:18:34;;;;;;;10.45;1.17;;;;;;;;;;5074203;28;20343;-63
2022/09/21 10:21:06;;;;;;;10.07;1.02;;;;;;;;;;5070750;28;20652;-63
2022/09/21 10:23:32;;;;;;;4.47;0.70;;;;;;;;;;5072694;28;20167;-64
2022/09/21 10:26:01;;;;;;;7.22;1.20;;;;;;;;;;5077640;28;20044;-63
2022/09/21 10:28:27;;;;;;;8.73;1.00;;;;;;;;;;5078323;28;20040;-63
2022/09/21 10:31:12;;;;;;;5.78;1.00;;;;;;;;;;5072345;28;20064;-62
2022/09/21 10:33:49;;;;;;;6.60;0.95;;;;;;;;;;5073066;28;20060;-62
2022/09/21 10:36:26;;;;;;;5.50;0.88;;;;;;;;;;5070701;28;20123;-64
2022/09/21 10:38:52;;;;;;;5.63;0.90;;;;;;;;;;5077923;28;20036;-62
2022/09/21 10:41:18;;;;;;;3.78;0.70;;;;;;;;;;5071781;28;20100;-63
2022/09/21 10:43:44;;;;;;;4.30;0.90;;;;;;;;;;5071979;28;20120;-63
2022/09/21 10:46:10;;;;;;;4.38;0.82;;;;;;;;;;5049032;28;20051;-61
2022/09/21 10:48:37;;;;;;;4.47;0.88;;;;;;;;;;5071689;28;20041;-63
2022/09/21 10:51:03;;;;;;;4.63;0.93;;;;;;;;;;5071655;28;20036;-63
2022/09/21 10:53:37;;;;;;;5.32;0.80;;;;;;;;;;5071911;28;20090;-62
2022/09/21 10:56:12;;;;;;;6.95;0.70;;;;;;;;;;5069586;28;20140;-61
2022/09/21 10:58:38;;;;;;;7.45;0.80;;;;;;;;;;5066905;28;20089;-61
2022/09/21 11:01:12;;;;;;;3.95;0.90;;;;;;;;;;5068948;28;20457;-61
2022/09/21 11:03:41;;;;;;;4.13;0.98;;;;;;;;;;5070248;28;20044;-61
2022/09/21 11:06:16;;;;;;;6.57;0.80;;;;;;;;;;5063404;28;20036;-60
2022/09/21 11:08:47;;;;;;;6.40;1.10;;;;;;;;;;5070859;28;20518;-61
2022/09/21 11:11:17;;;;;;;6.57;0.68;;;;;;;;;;5064502;28;20052;-62
2022/09/21 11:13:49;;;;;;;4.97;0.98;;;;;;;;;;5071247;28;20384;-60
2022/09/21 11:16:38;;;;;;;2.85;0.70;;;;;;;;;;5064370;28;20120;-62
2022/09/21 11:19:23;;;;;;;4.93;0.60;;;;;;;;;;5069123;28;20055;-62
2022/09/21 11:21:49;;;;;;;7.53;0.80;;;;;;;;;;5070526;28;20043;-63
2022/09/21 11:24:14;;;;;;;3.92;0.77;;;;;;;;;;5061283;28;20037;-62
2022/09/21 11:26:41;;;;;;;5.22;0.98;;;;;;;;;;5070573;28;20420;-63
2022/09/21 11:29:11;;;;;;;5.82;0.90;;;;;;;;;;5070858;28;20450;-63
2022/09/21 11:32:03;;;;;;;4.63;0.75;;;;;;;;;;5068276;28;20052;-63
2022/09/21 11:34:36;;;;;;;8.50;1.10;;;;;;;;;;5070310;28;20079;-63
2022/09/21 11:37:08;;;;;;;3.35;0.75;;;;;;;;;;5067182;28;20692;-62
2022/09/21 11:39:44;;;;;;;5.07;0.75;;;;;;;;;;5057127;28;20115;-63
2022/09/21 11:42:29;;;;;;;3.13;0.50;;;;;;;;;;5052163;28;20040;-63
2022/09/21 11:44:58;;;;;;;7.45;0.80;;;;;;;;;;5061786;28;20032;-63
2022/09/21 11:47:43;;;;;;;3.20;0.90;;;;;;;;;;5062804;28;20050;-62
2022/09/21 11:50:29;;;;;;;3.95;0.88;;;;;;;;;;5060711;28;20140;-62
2022/09/21 11:52:58;;;;;;;15.02;5.63;;;;;;;;;;5059664;28;20055;-63
2022/09/21 11:55:43;;;;;;;4.80;0.77;;;;;;;;;;5063428;28;20048;-62
2022/09/21 11:58:33;;;;;;;5.85;1.15;;;;;;;;;;5069932;28;20052;-63
2022/09/21 12:01:02;;;;;;;7.95;1.02;;;;;;;;;;5062434;28;20084;-63
2022/09/21 12:03:44;;;;;;;5.97;0.70;;;;;;;;;;5070241;28;20090;-63
2022/09/21 12:06:16;;;;;;;6.72;0.88;;;;;;;;;;5071379;28;20037;-62
2022/09/21 12:08:48;;;;;;;5.57;0.75;;;;;;;;;;5065461;28;20052;-62
2022/09/21 12:11:28;;;;;;;3.97;0.65;;;;;;;;;;5060614;28;20102;-63
2022/09/21 12:14:15;;;;;;;5.88;0.80;;;;;;;;;;5069627;28;20040;-62
2022/09/21 12:16:47;;;;;;;2.97;0.90;;;;;;;;;;5067677;28;20041;-63
2022/09/21 12:19:20;;;;;;;4.57;0.80;;;;;;;;;;5050313;28;20071;-62
2022/09/21 12:21:53;;;;;;;6.40;0.68;;;;;;;;;;5064930;28;20045;-62
2022/09/21 12:24:21;;;;;;;6.57;0.85;;;;;;;;;;5055976;28;20041;-62
2022/09/21 12:26:50;;;;;;;4.20;0.70;;;;;;;;;;5057780;28;20068;-61
2022/09/21 12:29:24;;;;;;;5.90;0.85;;;;;;;;;;5059734;28;20047;-61
2022/09/21 12:32:04;;;;;;;3.63;0.70;;;;;;;;;;5049849;28;20041;-62
2022/09/21 12:34:35;;;;;;;4.63;0.82;;;;;;;;;;5060324;28;20367;-62
2022/09/21 12:37:08;;;;;;;3.55;1.20;;;;;;;;;;5056789;28;20092;-62
2022/09/21 12:39:41;;;;;;;4.72;0.90;;;;;;;;;;5057159;28;20043;-62
2022/09/21 12:42:16;;;;;;;5.20;0.85;;;;;;;;;;5061405;28;20051;-63
2022/09/21 12:44:51;;;;;;;4.03;0.45;;;;;;;;;;5059785;28;20056;-63
2022/09/21 12:47:37;;;;;;;5.78;0.80;;;;;;;;;;5066081;28;20055;-62
2022/09/21 12:50:07;;;;;;;3.22;0.60;;;;;;;;;;5053286;28;20140;-63
2022/09/21 12:52:34;;;;;;;4.00;0.70;;;;;;;;;;5061767;28;20063;-63
2022/09/21 12:55:19;;;;;;;3.30;0.70;;;;;;;;;;5057258;28;20502;-63
2022/09/21 12:58:03;;;;;;;7.32;1.00;;;;;;;;;;5067458;28;20033;-63
2022/09/21 13:00:33;;;;;;;3.92;0.73;;;;;;;;;;5057131;28;20051;-64
2022/09/21 13:02:59;;;;;;;4.68;0.82;;;;;;;;;;5064415;28;20033;-61
2022/09/21 13:05:44;;;;;;;4.10;0.70;;;;;;;;;;5059928;28;20046;-62
2022/09/21 13:08:11;;;;;;;6.93;0.85;;;;;;;;;;5062145;28;20147;-63
2022/09/21 13:10:41;;;;;;;3.97;1.02;;;;;;;;;;5062583;28;20049;-63
2022/09/21 13:13:27;;;;;;;3.83;0.85;;;;;;;;;;5060056;28;20049;-65
2022/09/21 13:15:54;;;;;;;4.35;0.75;;;;;;;;;;5068228;28;20125;-62
2022/09/21 13:18:40;;;;;;;2.10;0.50;;;;;;;;;;5069999;28;20355;-62
2022/09/21 13:21:25;;;;;;;2.70;0.70;;;;;;;;;;5060619;28;20161;-61
2022/09/21 13:23:54;;;;;;;3.28;0.50;;;;;;;;;;5065134;28;20055;-61
2022/09/21 13:26:30;;;;;;;3.17;0.47;;;;;;;;;;5058362;28;20055;-61
2022/09/21 13:28:56;;;;;;;5.90;0.90;;;;;;;;;;5067214;28;20479;-61
2022/09/21 13:31:40;;;;;;;6.88;1.10;;;;;;;;;;5067293;28;20047;-62
2022/09/21 13:34:21;;;;;;;5.45;1.00;;;;;;;;;;5064207;28;20443;-61
2022/09/21 13:37:06;;;;;;;4.18;1.15;;;;;;;;;;5064023;28;20483;-64
2022/09/21 13:39:32;;;;;;;2.95;0.73;;;;;;;;;;5064208;28;20360;-63
2022/09/21 13:41:58;;;;;;;3.78;0.80;;;;;;;;;;5067354;28;20049;-62
2022/09/21 13:44:27;;;;;;;3.08;1.00;;;;;;;;;;5060570;28;20391;-61
2022/09/21 13:46:54;;;;;;;6.57;0.73;;;;;;;;;;5061460;28;20037;-62
2022/09/21 13:49:23;;;;;;;6.47;0.90;;;;;;;;;;5054787;28;20048;-63
2022/09/21 13:52:00;;;;;;;7.05;0.90;;;;;;;;;;5054755;28;20064;-62
2022/09/21 13:54:32;;;;;;;5.55;0.90;;;;;;;;;;5068070;28;20041;-63
2022/09/21 13:57:02;;;;;;;3.65;0.90;;;;;;;;;;5063094;28;20132;-61
2022/09/21 13:59:28;;;;;;;2.42;0.50;;;;;;;;;;5064961;28;20116;-63
2022/09/21 14:01:54;;;;;;;5.78;1.00;;;;;;;;;;5067002;28;20718;-63
2022/09/21 14:04:24;;;;;;;4.72;1.10;;;;;;;;;;5069177;28;20056;-64
2022/09/21 14:06:53;;;;;;;4.78;0.75;;;;;;;;;;5059126;28;20041;-63
2022/09/21 14:09:42;;;;;;;4.85;0.70;;;;;;;;;;5064426;28;20070;-61
2022/09/21 14:12:12;;;;;;;3.58;0.90;;;;;;;;;;5065321;28;20056;-63
2022/09/21 14:14:42;;;;;;;5.78;0.88;;;;;;;;;;5060506;28;20121;-62
2022/09/21 14:17:37;;;;;;;3.47;0.80;;;;;;;;;;5065343;28;20056;-62
2022/09/21 14:20:04;;;;;;;6.55;0.98;;;;;;;;;;5063884;28;20045;-63
2022/09/21 14:22:36;;;;;;;2.35;0.70;;;;;;;;;;5064671;28;20047;-62
2022/09/21 14:25:23;;;;;;;2.33;0.70;;;;;;;;;;5062319;28;20040;-62
2022/09/21 14:27:50;;;;;;;3.92;0.65;;;;;;;;;;5059914;28;20082;-61
2022/09/21 14:30:18;;;;;;;4.07;0.50;;;;;;;;;;5063225;28;20348;-61
2022/09/21 14:33:06;;;;;;;3.60;0.70;;;;;;;;;;5067668;28;20123;-61
2022/09/21 14:35:34;;;;;;;4.03;0.93;;;;;;;;;;5056102;28;20040;-61
2022/09/21 14:38:01;;;;;;;3.58;0.77;;;;;;;;;;5064864;28;20041;-62
2022/09/21 14:40:37;;;;;;;4.55;0.75;;;;;;;;;;5071809;28;20048;-63
2022/09/21 14:43:08;;;;;;;2.33;0.70;;;;;;;;;;5073178;28;20045;-63
2022/09/21 14:45:51;;;;;;;3.38;0.70;;;;;;;;;;5072789;28;20394;-63
2022/09/21 14:48:36;;;;;;;3.60;0.70;;;;;;;;;;5059392;28;20120;-63
2022/09/21 14:51:25;;;;;;;2.42;0.60;;;;;;;;;;5063261;28;20131;-64
2022/09/21 14:53:54;;;;;;;6.00;0.90;;;;;;;;;;5077253;28;20546;-64
2022/09/21 14:56:35;;;;;;;4.97;0.60;;;;;;;;;;5063577;28;20119;-64
2022/09/21 14:59:11;;;;;;;5.38;0.90;;;;;;;;;;5067889;28;20036;-64
2022/09/21 15:01:41;;;;;;;5.93;0.98;;;;;;;;;;5072495;28;20146;-64
2022/09/21 15:04:15;;;;;;;9.20;1.13;;;;;;;;;;5073152;28;20102;-64
2022/09/21 15:12:37;;;;;;;1.83;0.60;;;;;;;;;;5072317;28;20079;-64